createdAt,value
2018-01-12T00:01:51.036Z,7.57
2018-01-12T00:04:19.517Z,7.43
2018-01-12T00:06:48.011Z,8.03
2018-01-12T00:09:16.515Z,7.70
2018-01-12T00:11:46.641Z,8.17
2018-01-12T00:14:16.218Z,8.13
2018-01-12T00:16:45.386Z,7.60
2018-01-12T00:19:14.795Z,8.37
2018-01-12T00:21:43.323Z,7.50
2018-01-12T00:24:12.551Z,8.53
2018-01-12T00:26:41.044Z,7.37
2018-01-12T00:29:09.524Z,7.87
2018-01-12T00:31:37.991Z,7.70
2018-01-12T00:34:06.470Z,7.00
2018-01-12T00:36:34.959Z,7.03
2018-01-12T00:39:03.095Z,7.30
2018-01-12T00:41:32.350Z,7.47
2018-01-12T00:44:00.643Z,6.70
2018-01-12T00:46:28.923Z,8.37
2018-01-12T00:48:57.230Z,6.77
2018-01-12T00:51:25.556Z,7.43
2018-01-12T00:53:53.858Z,7.43
2018-01-12T00:56:22.947Z,7.30
2018-01-12T00:58:51.351Z,7.03
2018-01-12T01:01:19.877Z,7.40
2018-01-12T01:03:48.351Z,6.90
2018-01-12T01:06:16.870Z,6.57
2018-01-12T01:08:46.138Z,7.17
2018-01-12T01:11:16.124Z,7.27
2018-01-12T01:13:45.581Z,7.43
2018-01-12T01:16:15.150Z,7.33
2018-01-12T01:18:44.300Z,6.80
2018-01-12T01:21:14.140Z,7.13
2018-01-12T01:23:42.613Z,6.80
2018-01-12T01:26:11.130Z,7.53
2018-01-12T01:28:39.660Z,7.00
2018-01-12T01:31:08.137Z,7.20
2018-01-12T01:33:36.666Z,6.77
2018-01-12T01:36:05.946Z,7.23
2018-01-12T01:38:34.615Z,6.70
2018-01-12T01:41:03.097Z,7.13
2018-01-12T01:43:31.606Z,7.10
2018-01-12T01:46:00.100Z,7.37
2018-01-12T01:48:39.739Z,6.93
2018-01-12T01:51:08.276Z,7.40
2018-01-12T01:53:36.794Z,7.50
2018-01-12T01:56:05.304Z,7.40
2018-01-12T01:58:34.552Z,7.13
2018-01-12T02:01:03.010Z,7.60
2018-01-12T02:03:31.521Z,7.57
2018-01-12T02:05:59.984Z,6.83
2018-01-12T02:08:28.477Z,7.30
2018-01-12T02:10:56.948Z,7.40
2018-01-12T02:13:25.436Z,7.30
2018-01-12T02:15:54.670Z,7.53
2018-01-12T02:18:23.895Z,7.90
2018-01-12T02:20:52.371Z,7.17
2018-01-12T02:23:20.841Z,7.37
2018-01-12T02:25:50.105Z,7.13
2018-01-12T02:28:18.745Z,7.27
2018-01-12T02:30:47.424Z,7.40
2018-01-12T02:33:16.739Z,7.47
2018-01-12T02:35:46.094Z,7.03
2018-01-12T02:38:16.264Z,7.07
2018-01-12T02:40:45.587Z,8.03
2018-01-12T02:43:14.444Z,7.90
2018-01-12T02:45:42.917Z,7.03
2018-01-12T02:48:11.453Z,7.10
2018-01-12T02:50:39.971Z,7.57
2018-01-12T02:53:08.493Z,7.90
2018-01-12T02:55:37.746Z,7.07
2018-01-12T02:58:06.253Z,7.07
2018-01-12T03:00:34.723Z,7.67
2018-01-12T03:03:03.216Z,7.57
2018-01-12T03:05:31.737Z,7.60
2018-01-12T03:08:01.017Z,7.87
2018-01-12T03:10:29.502Z,7.83
2018-01-12T03:12:58.006Z,8.00
2018-01-12T03:15:27.273Z,7.33
2018-01-12T03:17:55.759Z,7.07
2018-01-12T03:20:24.267Z,8.83
2018-01-12T03:22:53.565Z,8.27
2018-01-12T03:25:22.799Z,9.20
2018-01-12T03:27:51.274Z,9.07
2018-01-12T03:30:19.806Z,8.63
2018-01-12T03:32:49.113Z,8.20
2018-01-12T03:35:18.021Z,9.73
2018-01-12T03:37:46.541Z,8.40
2018-01-12T03:40:15.053Z,7.70
2018-01-12T03:42:44.193Z,8.10
2018-01-12T03:45:12.664Z,7.50
2018-01-12T03:47:41.132Z,7.30
2018-01-12T03:50:09.692Z,6.77
2018-01-12T03:52:39.910Z,7.70
2018-01-12T03:55:09.172Z,7.90
2018-01-12T03:57:37.665Z,7.43
2018-01-12T04:00:06.190Z,8.77
2018-01-12T04:02:35.739Z,7.80
2018-01-12T04:05:04.206Z,7.27
2018-01-12T04:07:32.748Z,8.00
2018-01-12T04:10:02.040Z,8.93
2018-01-12T04:12:31.322Z,8.43
2018-01-12T04:14:59.852Z,9.10
2018-01-12T04:17:28.338Z,8.93
2018-01-12T04:19:56.864Z,9.30
2018-01-12T04:22:26.313Z,8.67
2018-01-12T04:24:54.899Z,9.37
2018-01-12T04:27:23.226Z,8.70
2018-01-12T04:29:51.722Z,8.87
2018-01-12T04:32:21.982Z,8.30
2018-01-12T04:34:50.497Z,8.90
2018-01-12T04:37:19.651Z,8.97
2018-01-12T04:39:48.121Z,8.70
2018-01-12T04:42:17.676Z,8.87
2018-01-12T04:44:47.091Z,8.77
2018-01-12T04:47:16.268Z,8.73
2018-01-12T04:49:45.615Z,9.10
2018-01-12T04:52:15.161Z,9.47
2018-01-12T04:54:44.473Z,8.57
2018-01-12T04:57:12.994Z,8.73
2018-01-12T04:59:41.513Z,8.73
2018-01-12T05:02:10.329Z,8.40
2018-01-12T05:04:38.813Z,9.73
2018-01-12T05:07:07.361Z,9.47
2018-01-12T05:09:35.873Z,10.07
2018-01-12T05:12:04.156Z,10.10
2018-01-12T05:14:33.458Z,10.20
2018-01-12T05:17:02.708Z,9.53
2018-01-12T05:19:31.231Z,10.10
2018-01-12T05:22:00.686Z,10.27
2018-01-12T05:24:29.167Z,9.37
2018-01-12T05:26:57.674Z,10.37
2018-01-12T05:29:26.180Z,10.47
2018-01-12T05:31:55.454Z,9.57
2018-01-12T05:34:23.932Z,10.57
2018-01-12T05:36:52.426Z,10.27
2018-01-12T05:39:20.728Z,10.23
2018-01-12T05:41:49.246Z,10.03
2018-01-12T05:44:17.727Z,9.37
2018-01-12T05:46:46.848Z,10.03
2018-01-12T05:49:16.008Z,11.47
2018-01-12T05:51:45.054Z,10.10
2018-01-12T05:54:15.020Z,9.53
2018-01-12T05:56:43.560Z,10.93
2018-01-12T05:59:12.850Z,11.37
2018-01-12T06:01:53.519Z,10.63
2018-01-12T06:04:34.228Z,10.53
2018-01-12T06:07:02.566Z,10.00
2018-01-12T06:09:32.490Z,9.10
2018-01-12T06:12:01.018Z,9.60
2018-01-12T06:14:29.522Z,9.57
2018-01-12T06:16:58.006Z,9.70
2018-01-12T06:19:27.305Z,9.13
2018-01-12T06:21:56.556Z,9.77
2018-01-12T06:24:25.053Z,9.23
2018-01-12T06:26:53.565Z,8.90
2018-01-12T06:29:22.846Z,9.83
2018-01-12T06:31:51.370Z,9.00
2018-01-12T06:34:19.908Z,10.00
2018-01-12T06:36:48.418Z,8.53
2018-01-12T06:39:17.735Z,9.40
2018-01-12T06:41:47.090Z,9.63
2018-01-12T06:44:16.480Z,9.47
2018-01-12T06:46:45.796Z,9.50
2018-01-12T06:49:14.855Z,8.30
2018-01-12T06:51:43.538Z,8.63
2018-01-12T06:54:12.010Z,8.60
2018-01-12T06:56:40.488Z,8.93
2018-01-12T06:59:09.035Z,8.83
2018-01-12T07:01:38.286Z,8.23
2018-01-12T07:04:06.793Z,10.03
2018-01-12T07:06:35.264Z,8.93
2018-01-12T07:09:03.236Z,9.47
2018-01-12T07:11:31.508Z,9.67
2018-01-12T07:13:59.801Z,9.57
2018-01-12T07:16:29.052Z,8.87
2018-01-12T07:18:57.519Z,9.13
2018-01-12T07:21:37.378Z,9.30
2018-01-12T07:24:05.844Z,9.70
2018-01-12T07:26:34.324Z,8.70
2018-01-12T07:29:02.820Z,9.37
2018-01-12T07:31:31.341Z,9.13
2018-01-12T07:34:00.639Z,8.67
2018-01-12T07:36:29.312Z,9.07
2018-01-12T07:38:57.786Z,8.37
2018-01-12T07:41:26.310Z,8.53
2018-01-12T07:43:54.856Z,9.40
2018-01-12T07:46:23.343Z,8.80
2018-01-12T07:48:52.582Z,8.70
2018-01-12T07:51:21.131Z,8.77
2018-01-12T09:18:59.473Z,8.93
2018-01-12T09:21:28.025Z,9.13
2018-01-12T09:23:56.760Z,9.17
2018-01-12T09:26:25.446Z,8.17
2018-01-12T09:28:53.977Z,8.57
2018-01-12T09:31:39.572Z,9.00
2018-01-12T09:34:20.286Z,8.87
2018-01-12T09:36:48.799Z,8.77
2018-01-12T09:39:28.667Z,8.70
2018-01-12T09:41:57.899Z,8.90
2018-01-12T09:44:26.378Z,8.67
2018-01-12T09:46:54.242Z,8.37
2018-01-12T09:49:23.068Z,8.10
2018-01-12T09:51:51.530Z,9.50
2018-01-12T09:54:20.041Z,7.83
2018-01-12T09:56:48.550Z,8.53
2018-01-12T09:59:16.416Z,7.33
2018-01-12T10:01:45.158Z,7.90
2018-01-12T10:04:13.820Z,7.90
2018-01-12T10:06:42.329Z,7.87
2018-01-12T10:09:10.865Z,8.03
2018-01-12T10:11:39.373Z,8.20
2018-01-12T10:14:07.829Z,8.17
2018-01-12T10:16:36.302Z,8.70
2018-01-12T10:19:04.331Z,9.13
2018-01-12T10:21:40.916Z,8.70
2018-01-12T10:24:10.152Z,8.53
2018-01-12T10:26:38.665Z,8.60
2018-01-12T10:29:08.093Z,7.97
2018-01-12T10:31:48.400Z,8.70
2018-01-12T10:34:24.212Z,8.80
2018-01-12T10:36:56.561Z,10.10
2018-01-12T10:39:25.508Z,9.27
2018-01-12T10:42:03.096Z,8.83
2018-01-12T10:44:31.563Z,9.20
2018-01-12T10:47:16.258Z,9.33
2018-01-12T10:49:56.022Z,10.33
2018-01-12T10:52:42.112Z,10.03
2018-01-12T10:55:10.625Z,10.37
2018-01-12T10:57:38.945Z,8.83
2018-01-12T11:00:07.438Z,9.67
2018-01-12T11:02:35.919Z,10.73
2018-01-12T11:05:04.059Z,10.90
2018-01-12T11:07:32.594Z,10.43
2018-01-12T11:10:01.823Z,9.97
2018-01-12T11:12:31.346Z,10.03
2018-01-12T11:14:59.829Z,9.40
2018-01-12T11:17:28.318Z,10.27
2018-01-12T11:19:56.856Z,9.87
2018-01-12T11:22:26.287Z,10.70
2018-01-12T11:24:54.798Z,10.43
2018-01-12T11:27:23.343Z,10.23
2018-01-12T11:29:51.854Z,11.30
2018-01-12T11:32:21.287Z,11.87
2018-01-12T11:34:50.594Z,10.93
2018-01-12T11:37:19.131Z,10.63
2018-01-12T11:39:47.601Z,10.43
2018-01-12T11:42:16.640Z,11.33
2018-01-12T11:44:46.610Z,10.83
2018-01-12T11:47:16.102Z,10.67
2018-01-12T11:49:45.163Z,11.53
2018-01-12T11:52:15.226Z,11.00
2018-01-12T11:54:43.789Z,10.53
2018-01-12T11:57:12.303Z,10.67
2018-01-12T11:59:40.770Z,10.83
2018-01-12T12:02:09.127Z,11.33
2018-01-12T12:04:37.641Z,11.67
2018-01-12T12:07:06.112Z,12.53
2018-01-12T12:09:34.649Z,10.87
2018-01-12T12:12:03.169Z,12.33
2018-01-12T12:14:31.630Z,12.77
2018-01-12T12:16:59.950Z,13.97
2018-01-12T12:19:29.183Z,12.63
2018-01-12T12:21:57.666Z,13.60
2018-01-12T12:24:26.173Z,13.27
2018-01-12T12:26:54.686Z,13.63
2018-01-12T12:29:23.208Z,12.90
2018-01-12T12:31:51.696Z,11.60
2018-01-12T12:34:20.209Z,12.13
2018-01-12T12:36:48.687Z,12.07
2018-01-12T12:39:17.163Z,12.80
2018-01-12T12:41:46.439Z,12.67
2018-01-12T12:44:14.948Z,11.57
2018-01-12T12:46:43.880Z,13.47
2018-01-12T12:49:12.364Z,13.43
2018-01-12T12:51:40.878Z,12.27
2018-01-12T12:54:09.354Z,12.77
2018-01-12T12:56:37.884Z,11.83
2018-01-12T12:59:07.141Z,12.80
2018-01-12T13:01:35.623Z,12.33
2018-01-12T13:04:04.149Z,12.20
2018-01-12T13:06:33.431Z,12.43
2018-01-12T13:09:01.954Z,12.67
2018-01-12T13:11:30.419Z,13.30
2018-01-12T13:13:58.920Z,13.17
2018-01-12T13:16:27.438Z,13.20
2018-01-12T13:18:55.949Z,13.30
2018-01-12T13:21:25.185Z,12.37
2018-01-12T13:23:53.653Z,13.87
2018-01-12T13:26:22.197Z,13.67
2018-01-12T13:28:51.483Z,12.67
2018-01-12T13:31:19.795Z,12.57
2018-01-12T13:33:48.287Z,12.80
2018-01-12T13:36:16.818Z,13.37
2018-01-12T13:38:45.348Z,12.47
2018-01-12T13:41:13.826Z,13.40
2018-01-12T13:43:42.305Z,12.13
2018-01-12T13:46:10.678Z,13.33
2018-01-12T13:48:39.146Z,13.83
2018-01-12T13:51:07.646Z,12.27
2018-01-12T13:53:36.318Z,12.87
2018-01-12T13:56:04.455Z,14.17
2018-01-12T13:58:32.960Z,12.57
2018-01-12T14:01:02.272Z,13.97
2018-01-12T14:03:30.793Z,13.63
2018-01-12T14:06:00.076Z,12.77
2018-01-12T14:08:29.392Z,13.57
2018-01-12T14:10:57.917Z,13.67
2018-01-12T14:13:26.387Z,13.87
2018-01-12T14:15:55.682Z,17.20
2018-01-12T14:18:24.992Z,14.27
2018-01-12T14:20:54.237Z,13.67
2018-01-12T14:23:22.720Z,15.13
2018-01-12T14:25:51.251Z,12.77
2018-01-12T14:28:19.713Z,14.07
2018-01-12T14:30:48.954Z,13.53
2018-01-12T14:33:17.464Z,14.53
2018-01-12T14:35:46.778Z,15.20
2018-01-12T14:38:16.171Z,12.93
2018-01-12T14:40:45.452Z,14.93
2018-01-12T14:43:14.045Z,14.20
2018-01-12T14:45:42.756Z,14.27
2018-01-12T14:48:11.377Z,17.20
2018-01-12T14:50:39.971Z,13.77
2018-01-12T14:53:08.556Z,14.77
2018-01-12T14:55:37.160Z,13.77
2018-01-12T14:58:06.500Z,13.23
2018-01-12T15:00:35.153Z,14.93
2018-01-12T15:03:03.873Z,15.37
2018-01-12T15:05:33.201Z,14.87
2018-01-12T15:08:02.594Z,14.57
2018-01-12T15:10:33.665Z,14.37
2018-01-12T15:13:02.264Z,14.30
2018-01-12T15:15:30.873Z,15.03
2018-01-12T15:17:59.563Z,15.07
2018-01-12T15:20:29.168Z,15.13
2018-01-12T15:22:57.802Z,14.67
2018-01-12T15:25:26.404Z,14.47
2018-01-12T15:27:54.999Z,14.30
2018-01-12T15:30:24.414Z,15.23
2018-01-12T15:32:53.794Z,15.23
2018-01-12T15:35:22.368Z,14.10
2018-01-12T15:37:51.718Z,15.43
2018-01-12T15:40:20.325Z,15.87
2018-01-12T15:42:49.675Z,15.13
2018-01-12T15:45:19.258Z,15.70
2018-01-12T15:47:48.716Z,14.70
2018-01-12T15:50:18.105Z,15.50
2018-01-12T15:52:46.720Z,15.73
2018-01-12T15:55:16.118Z,16.00
2018-01-12T15:57:44.768Z,15.23
2018-01-12T16:00:14.106Z,14.60
2018-01-12T16:02:42.736Z,15.53
2018-01-12T16:05:12.163Z,15.43
2018-01-12T16:07:40.752Z,15.93
2018-01-12T16:10:10.160Z,15.97
2018-01-12T16:12:38.897Z,15.57
2018-01-12T16:17:42.978Z,15.17
2018-01-12T16:20:11.541Z,16.70
2018-01-12T16:22:40.160Z,14.90
2018-01-12T16:25:08.779Z,15.10
2018-01-12T16:27:37.910Z,15.63
2018-01-12T16:30:07.239Z,15.43
2018-01-12T16:32:35.811Z,16.20
2018-01-12T16:35:05.311Z,14.93
2018-01-12T16:37:33.581Z,15.07
2018-01-12T16:40:02.981Z,15.13
2018-01-12T16:42:31.547Z,16.03
2018-01-12T16:45:00.091Z,14.73
2018-01-12T16:47:28.684Z,15.37
2018-01-12T16:49:57.279Z,15.57
2018-01-12T16:52:25.872Z,14.33
2018-01-12T16:54:54.683Z,15.07
2018-01-12T16:57:23.283Z,15.77
2018-01-12T16:59:52.666Z,14.90
2018-01-12T17:02:21.249Z,15.43
2018-01-12T17:04:50.710Z,15.13
2018-01-12T17:07:19.300Z,15.70
2018-01-12T17:09:47.887Z,14.23
2018-01-12T17:12:16.518Z,14.53
2018-01-12T17:14:45.129Z,14.77
2018-01-12T17:17:14.500Z,15.40
2018-01-12T17:19:43.065Z,15.13
2018-01-12T17:22:13.037Z,14.73
2018-01-12T17:24:41.605Z,15.03
2018-01-12T17:27:10.245Z,15.97
2018-01-12T17:29:39.757Z,15.20
2018-01-12T17:32:08.345Z,14.40
2018-01-12T17:34:36.988Z,15.27
2018-01-12T17:37:05.615Z,14.43
2018-01-12T17:39:34.241Z,16.23
2018-01-12T17:42:03.598Z,15.63
2018-01-12T17:44:32.188Z,15.97
2018-01-12T17:47:01.209Z,14.60
2018-01-12T17:49:29.800Z,15.93
2018-01-12T17:51:58.393Z,15.80
2018-01-12T17:54:26.984Z,15.23
2018-01-12T17:56:55.544Z,15.53
2018-01-12T17:59:24.114Z,14.63
2018-01-12T18:01:53.159Z,15.20
2018-01-12T18:04:21.704Z,15.47
2018-01-12T18:06:50.310Z,14.87
2018-01-12T18:09:18.938Z,14.67
2018-01-12T18:11:47.510Z,15.10
2018-01-12T18:14:16.134Z,15.50
2018-01-12T18:16:47.647Z,14.80
2018-01-12T18:19:16.200Z,14.90
2018-01-12T18:21:45.748Z,15.80
2018-01-12T18:24:14.340Z,16.17
2018-01-12T18:26:42.887Z,15.03
2018-01-12T18:29:11.521Z,16.47
2018-01-12T18:31:40.663Z,18.77
2018-01-12T18:34:09.243Z,18.40
2018-01-12T18:36:37.851Z,16.87
2018-01-12T18:39:06.089Z,15.60
2018-01-12T18:41:34.676Z,16.73
2018-01-12T18:44:03.293Z,18.07
2018-01-12T18:46:31.890Z,16.97
2018-01-12T18:49:00.515Z,17.37
2018-01-12T18:51:29.088Z,16.43
2018-01-12T18:53:57.651Z,16.97
2018-01-12T18:56:26.274Z,18.00
2018-01-12T18:59:02.371Z,17.57
2018-01-12T19:01:33.600Z,17.37
2018-01-12T19:04:02.061Z,17.10
2018-01-12T19:06:30.646Z,16.93
2018-01-12T19:08:59.263Z,17.67
2018-01-12T19:11:28.656Z,16.90
2018-01-12T19:13:57.281Z,16.90
2018-01-12T19:16:25.899Z,16.50
2018-01-12T19:18:55.521Z,16.43
2018-01-12T19:21:24.181Z,15.27
2018-01-12T19:23:52.835Z,15.87
2018-01-12T19:26:21.370Z,15.77
2018-01-12T19:28:50.720Z,15.37
2018-01-12T19:31:19.326Z,15.53
2018-01-12T19:33:47.944Z,16.47
2018-01-12T19:36:16.591Z,16.50
2018-01-12T19:38:45.328Z,15.13
2018-01-12T19:41:13.958Z,15.53
2018-01-12T19:43:43.278Z,17.63
2018-01-12T19:46:12.718Z,17.47
2018-01-12T19:48:42.030Z,16.17
2018-01-12T19:51:10.666Z,16.30
2018-01-12T19:53:39.258Z,16.07
2018-01-12T19:56:07.900Z,16.50
2018-01-12T19:58:36.574Z,16.13
2018-01-12T20:01:05.243Z,15.87
2018-01-12T20:03:33.971Z,14.63
2018-01-12T20:06:02.528Z,15.43
2018-01-12T20:08:31.171Z,16.30
2018-01-12T20:10:59.874Z,16.30
2018-01-12T20:13:28.579Z,16.17
2018-01-12T20:15:57.230Z,18.87
2018-01-12T20:18:25.845Z,15.83
2018-01-12T20:20:54.477Z,17.07
2018-01-12T20:23:23.063Z,16.23
2018-01-12T20:25:51.700Z,15.57
2018-01-12T20:28:21.109Z,16.17
2018-01-12T20:30:50.081Z,18.57
2018-01-12T20:33:18.691Z,16.73
2018-01-12T20:35:47.329Z,17.93
2018-01-12T20:38:15.937Z,17.27
2018-01-12T20:40:44.507Z,17.37
2018-01-12T20:43:13.826Z,17.00
2018-01-12T20:45:42.660Z,16.17
2018-01-12T20:48:12.072Z,17.20
2018-01-12T20:50:41.457Z,17.43
2018-01-12T20:53:10.022Z,17.13
2018-01-12T20:55:39.416Z,18.40
2018-01-12T20:58:08.834Z,18.20
2018-01-12T21:00:37.465Z,17.87
2018-01-12T21:03:06.063Z,17.13
2018-01-12T21:05:34.689Z,17.20
2018-01-12T21:08:04.107Z,18.37
2018-01-12T21:10:32.784Z,16.80
2018-01-12T21:13:01.364Z,17.23
2018-01-12T21:15:30.753Z,18.30
2018-01-12T21:17:59.342Z,19.33
2018-01-12T21:20:28.024Z,20.17
2018-01-12T21:22:56.627Z,19.10
2018-01-12T21:25:26.110Z,19.50
2018-01-12T21:27:54.759Z,18.80
2018-01-12T21:30:24.097Z,18.93
2018-01-12T21:32:53.524Z,17.17
2018-01-12T21:35:22.934Z,17.37
2018-01-12T21:37:51.592Z,17.03
2018-01-12T21:40:20.213Z,17.23
2018-01-12T21:42:48.704Z,17.07
2018-01-12T21:45:17.460Z,17.33
2018-01-12T21:47:46.946Z,16.07
2018-01-12T21:50:17.970Z,15.43
2018-01-12T21:52:47.340Z,17.33
2018-01-12T21:55:16.001Z,16.47
2018-01-12T21:57:45.331Z,17.10
2018-01-12T22:00:14.729Z,17.30
2018-01-12T22:02:43.349Z,16.33
2018-01-12T22:05:11.906Z,16.67
2018-01-12T22:07:40.471Z,14.17
2018-01-12T22:10:08.727Z,15.60
2018-01-12T22:12:37.358Z,14.43
2018-01-12T22:15:06.361Z,14.53
2018-01-12T22:17:35.002Z,13.50
2018-01-12T22:20:03.605Z,14.27
2018-01-12T22:22:32.151Z,15.40
2018-01-12T22:25:00.796Z,14.50
2018-01-12T22:27:29.383Z,15.47
2018-01-12T22:29:57.987Z,15.20
2018-01-12T22:32:26.602Z,14.83
2018-01-12T22:34:55.912Z,14.53
2018-01-12T22:37:24.504Z,13.73
2018-01-12T22:39:53.075Z,14.50
2018-01-12T22:42:21.626Z,14.60
2018-01-12T22:44:50.171Z,14.17
2018-01-12T22:47:18.791Z,11.47
2018-01-12T22:49:47.430Z,14.13
2018-01-12T22:52:16.058Z,13.50
2018-01-12T22:54:44.601Z,13.90
2018-01-12T22:57:13.243Z,15.03
2018-01-12T22:59:41.885Z,11.13
2018-01-12T23:02:10.502Z,15.20
2018-01-12T23:04:39.236Z,12.83
2018-01-12T23:07:08.579Z,14.03
2018-01-12T23:12:11.915Z,13.40
2018-01-12T23:14:40.517Z,15.73
2018-01-12T23:17:09.075Z,15.50
2018-01-12T23:19:37.640Z,13.43
2018-01-12T23:22:06.234Z,14.57
2018-01-12T23:24:34.778Z,15.57
2018-01-12T23:27:04.143Z,13.33
2018-01-12T23:29:34.586Z,13.53
2018-01-12T23:32:03.220Z,14.20
2018-01-12T23:34:34.809Z,14.50
2018-01-12T23:37:03.343Z,12.23
2018-01-12T23:39:32.066Z,15.03
2018-01-12T23:42:01.424Z,15.77
2018-01-12T23:44:29.981Z,15.60
2018-01-12T23:46:58.571Z,15.17
2018-01-12T23:49:27.183Z,14.90
2018-01-12T23:51:55.814Z,15.27
2018-01-12T23:54:24.447Z,16.47
2018-01-12T23:56:53.829Z,14.80
2018-01-12T23:59:22.470Z,14.97
